sensor_id;sensor_type;location;lat;lon;timestamp;P1;durP1;ratioP1;P2;durP2;ratioP2
13102;SDS011;52970;46.752;17.108;2024-01-30T00:01:52;22.10;;;13.63;;
13102;SDS011;52970;46.752;17.108;2024-01-30T00:04:17;18.70;;;12.33;;
13102;SDS011;52970;46.752;17.108;2024-01-30T00:06:43;17.83;;;13.40;;
13102;SDS011;52970;46.752;17.108;2024-01-30T00:09:08;19.33;;;13.20;;
13102;SDS011;52970;46.752;17.108;2024-01-30T00:11:35;17.27;;;12.37;;
13102;SDS011;52970;46.752;17.108;2024-01-30T00:14:00;19.50;;;13.10;;
13102;SDS011;52970;46.752;17.108;2024-01-30T00:16:27;18.80;;;12.93;;
13102;SDS011;52970;46.752;17.108;2024-01-30T00:18:52;17.53;;;13.60;;
13102;SDS011;52970;46.752;17.108;2024-01-30T00:21:17;18.40;;;12.77;;
13102;SDS011;52970;46.752;17.108;2024-01-30T00:23:43;19.80;;;13.63;;
13102;SDS011;52970;46.752;17.108;2024-01-30T00:26:08;18.17;;;12.80;;
13102;SDS011;52970;46.752;17.108;2024-01-30T00:28:33;17.47;;;12.43;;
13102;SDS011;52970;46.752;17.108;2024-01-30T00:30:58;16.90;;;12.60;;
13102;SDS011;52970;46.752;17.108;2024-01-30T00:33:23;21.73;;;12.83;;
13102;SDS011;52970;46.752;17.108;2024-01-30T00:35:49;19.57;;;13.30;;
13102;SDS011;52970;46.752;17.108;2024-01-30T00:38:14;18.07;;;12.20;;
13102;SDS011;52970;46.752;17.108;2024-01-30T00:40:39;17.80;;;12.50;;
13102;SDS011;52970;46.752;17.108;2024-01-30T00:43:04;21.07;;;13.73;;
13102;SDS011;52970;46.752;17.108;2024-01-30T00:45:29;18.53;;;13.20;;
13102;SDS011;52970;46.752;17.108;2024-01-30T00:47:55;20.93;;;13.53;;
13102;SDS011;52970;46.752;17.108;2024-01-30T00:50:20;20.10;;;13.33;;
13102;SDS011;52970;46.752;17.108;2024-01-30T00:52:45;19.70;;;13.33;;
13102;SDS011;52970;46.752;17.108;2024-01-30T00:55:11;19.67;;;13.00;;
13102;SDS011;52970;46.752;17.108;2024-01-30T00:57:36;17.20;;;13.00;;
13102;SDS011;52970;46.752;17.108;2024-01-30T01:00:01;19.67;;;13.47;;
13102;SDS011;52970;46.752;17.108;2024-01-30T01:02:27;24.43;;;13.43;;
13102;SDS011;52970;46.752;17.108;2024-01-30T01:04:53;21.27;;;13.77;;
13102;SDS011;52970;46.752;17.108;2024-01-30T01:07:18;21.43;;;13.70;;
13102;SDS011;52970;46.752;17.108;2024-01-30T01:09:43;19.77;;;14.17;;
13102;SDS011;52970;46.752;17.108;2024-01-30T01:12:08;23.73;;;14.20;;
13102;SDS011;52970;46.752;17.108;2024-01-30T01:14:34;19.93;;;13.43;;
13102;SDS011;52970;46.752;17.108;2024-01-30T01:16:59;19.23;;;12.83;;
13102;SDS011;52970;46.752;17.108;2024-01-30T01:19:24;22.43;;;14.00;;
13102;SDS011;52970;46.752;17.108;2024-01-30T01:21:49;19.07;;;13.50;;
13102;SDS011;52970;46.752;17.108;2024-01-30T01:24:15;19.73;;;13.43;;
13102;SDS011;52970;46.752;17.108;2024-01-30T01:26:40;21.87;;;13.83;;
13102;SDS011;52970;46.752;17.108;2024-01-30T01:29:06;20.67;;;14.50;;
13102;SDS011;52970;46.752;17.108;2024-01-30T01:31:38;21.67;;;13.63;;
13102;SDS011;52970;46.752;17.108;2024-01-30T01:34:12;22.07;;;13.97;;
13102;SDS011;52970;46.752;17.108;2024-01-30T01:36:37;20.77;;;13.53;;
13102;SDS011;52970;46.752;17.108;2024-01-30T01:39:03;20.27;;;14.27;;
13102;SDS011;52970;46.752;17.108;2024-01-30T01:41:31;17.80;;;13.37;;
13102;SDS011;52970;46.752;17.108;2024-01-30T01:43:57;25.30;;;15.30;;
13102;SDS011;52970;46.752;17.108;2024-01-30T01:46:22;22.97;;;14.37;;
13102;SDS011;52970;46.752;17.108;2024-01-30T01:48:48;23.07;;;14.77;;
13102;SDS011;52970;46.752;17.108;2024-01-30T01:51:13;21.07;;;14.40;;
13102;SDS011;52970;46.752;17.108;2024-01-30T01:53:39;22.70;;;15.33;;
13102;SDS011;52970;46.752;17.108;2024-01-30T01:56:04;24.53;;;14.53;;
13102;SDS011;52970;46.752;17.108;2024-01-30T01:58:30;19.93;;;14.63;;
13102;SDS011;52970;46.752;17.108;2024-01-30T02:00:56;22.30;;;15.57;;
13102;SDS011;52970;46.752;17.108;2024-01-30T02:03:21;20.20;;;14.37;;
13102;SDS011;52970;46.752;17.108;2024-01-30T02:05:46;19.90;;;14.47;;
13102;SDS011;52970;46.752;17.108;2024-01-30T02:08:11;22.77;;;14.83;;
13102;SDS011;52970;46.752;17.108;2024-01-30T02:10:37;17.43;;;13.70;;
13102;SDS011;52970;46.752;17.108;2024-01-30T02:13:02;21.37;;;14.50;;
13102;SDS011;52970;46.752;17.108;2024-01-30T02:15:28;20.70;;;14.57;;
13102;SDS011;52970;46.752;17.108;2024-01-30T02:17:54;23.73;;;15.30;;
13102;SDS011;52970;46.752;17.108;2024-01-30T02:20:19;21.13;;;14.60;;
13102;SDS011;52970;46.752;17.108;2024-01-30T02:22:44;23.27;;;15.53;;
13102;SDS011;52970;46.752;17.108;2024-01-30T02:25:09;23.57;;;14.67;;
13102;SDS011;52970;46.752;17.108;2024-01-30T02:27:35;21.30;;;15.00;;
13102;SDS011;52970;46.752;17.108;2024-01-30T02:30:00;23.03;;;14.40;;
13102;SDS011;52970;46.752;17.108;2024-01-30T02:32:25;22.80;;;14.83;;
13102;SDS011;52970;46.752;17.108;2024-01-30T02:34:50;22.10;;;15.10;;
13102;SDS011;52970;46.752;17.108;2024-01-30T02:37:16;21.27;;;14.67;;
13102;SDS011;52970;46.752;17.108;2024-01-30T02:39:41;23.13;;;15.03;;
13102;SDS011;52970;46.752;17.108;2024-01-30T02:42:07;20.57;;;14.30;;
13102;SDS011;52970;46.752;17.108;2024-01-30T02:44:32;20.57;;;14.47;;
13102;SDS011;52970;46.752;17.108;2024-01-30T02:46:57;23.63;;;14.87;;
13102;SDS011;52970;46.752;17.108;2024-01-30T02:49:22;25.30;;;15.80;;
13102;SDS011;52970;46.752;17.108;2024-01-30T02:51:48;20.37;;;14.53;;
13102;SDS011;52970;46.752;17.108;2024-01-30T02:54:13;20.73;;;14.40;;
13102;SDS011;52970;46.752;17.108;2024-01-30T02:56:38;23.33;;;14.33;;
13102;SDS011;52970;46.752;17.108;2024-01-30T02:59:03;22.80;;;15.43;;
13102;SDS011;52970;46.752;17.108;2024-01-30T03:01:29;22.60;;;14.87;;
13102;SDS011;52970;46.752;17.108;2024-01-30T03:03:54;22.97;;;14.97;;
13102;SDS011;52970;46.752;17.108;2024-01-30T03:06:19;23.07;;;15.47;;
13102;SDS011;52970;46.752;17.108;2024-01-30T03:08:45;22.37;;;15.00;;
13102;SDS011;52970;46.752;17.108;2024-01-30T03:11:10;21.27;;;14.90;;
13102;SDS011;52970;46.752;17.108;2024-01-30T03:13:35;21.97;;;15.40;;
13102;SDS011;52970;46.752;17.108;2024-01-30T03:16:01;26.70;;;14.83;;
13102;SDS011;52970;46.752;17.108;2024-01-30T03:18:26;22.00;;;15.60;;
13102;SDS011;52970;46.752;17.108;2024-01-30T03:20:51;20.47;;;14.73;;
13102;SDS011;52970;46.752;17.108;2024-01-30T03:23:17;21.60;;;14.77;;
13102;SDS011;52970;46.752;17.108;2024-01-30T03:25:42;25.33;;;15.87;;
13102;SDS011;52970;46.752;17.108;2024-01-30T03:28:07;24.03;;;15.47;;
13102;SDS011;52970;46.752;17.108;2024-01-30T03:30:33;22.17;;;14.67;;
13102;SDS011;52970;46.752;17.108;2024-01-30T03:33:00;20.70;;;15.87;;
13102;SDS011;52970;46.752;17.108;2024-01-30T03:35:25;20.87;;;14.63;;
13102;SDS011;52970;46.752;17.108;2024-01-30T03:37:50;20.33;;;14.90;;
13102;SDS011;52970;46.752;17.108;2024-01-30T03:40:15;21.40;;;15.30;;
13102;SDS011;52970;46.752;17.108;2024-01-30T03:42:41;24.13;;;16.37;;
13102;SDS011;52970;46.752;17.108;2024-01-30T03:45:06;21.67;;;15.67;;
13102;SDS011;52970;46.752;17.108;2024-01-30T03:47:32;24.37;;;15.93;;
13102;SDS011;52970;46.752;17.108;2024-01-30T03:49:57;22.63;;;14.80;;
13102;SDS011;52970;46.752;17.108;2024-01-30T03:52:22;21.93;;;14.90;;
13102;SDS011;52970;46.752;17.108;2024-01-30T03:54:47;22.23;;;15.17;;
13102;SDS011;52970;46.752;17.108;2024-01-30T03:57:13;24.93;;;15.93;;
13102;SDS011;52970;46.752;17.108;2024-01-30T03:59:38;22.53;;;15.40;;
13102;SDS011;52970;46.752;17.108;2024-01-30T04:02:03;21.93;;;14.50;;
13102;SDS011;52970;46.752;17.108;2024-01-30T04:04:29;21.33;;;15.30;;
13102;SDS011;52970;46.752;17.108;2024-01-30T04:06:54;21.27;;;14.90;;
13102;SDS011;52970;46.752;17.108;2024-01-30T04:09:19;24.37;;;15.30;;
13102;SDS011;52970;46.752;17.108;2024-01-30T04:11:44;27.53;;;15.77;;
13102;SDS011;52970;46.752;17.108;2024-01-30T04:14:10;22.67;;;14.97;;
13102;SDS011;52970;46.752;17.108;2024-01-30T04:16:35;20.70;;;15.00;;
13102;SDS011;52970;46.752;17.108;2024-01-30T04:19:01;23.23;;;15.80;;
13102;SDS011;52970;46.752;17.108;2024-01-30T04:21:26;23.00;;;15.83;;
13102;SDS011;52970;46.752;17.108;2024-01-30T04:23:53;21.13;;;13.87;;
13102;SDS011;52970;46.752;17.108;2024-01-30T04:26:18;21.77;;;14.67;;
13102;SDS011;52970;46.752;17.108;2024-01-30T04:28:44;25.07;;;14.90;;
13102;SDS011;52970;46.752;17.108;2024-01-30T04:31:09;20.93;;;14.80;;
13102;SDS011;52970;46.752;17.108;2024-01-30T04:33:35;21.00;;;15.10;;
13102;SDS011;52970;46.752;17.108;2024-01-30T04:36:01;23.33;;;15.77;;
13102;SDS011;52970;46.752;17.108;2024-01-30T04:38:26;24.40;;;15.37;;
13102;SDS011;52970;46.752;17.108;2024-01-30T04:40:51;23.13;;;15.67;;
13102;SDS011;52970;46.752;17.108;2024-01-30T04:43:16;22.90;;;15.33;;
13102;SDS011;52970;46.752;17.108;2024-01-30T04:45:42;24.00;;;15.17;;
13102;SDS011;52970;46.752;17.108;2024-01-30T04:48:07;20.57;;;15.13;;
13102;SDS011;52970;46.752;17.108;2024-01-30T04:50:32;25.70;;;16.13;;
13102;SDS011;52970;46.752;17.108;2024-01-30T04:52:58;24.53;;;16.23;;
13102;SDS011;52970;46.752;17.108;2024-01-30T04:55:23;26.07;;;16.07;;
13102;SDS011;52970;46.752;17.108;2024-01-30T04:57:48;22.70;;;15.63;;
13102;SDS011;52970;46.752;17.108;2024-01-30T05:00:14;24.73;;;16.13;;
13102;SDS011;52970;46.752;17.108;2024-01-30T05:02:40;22.20;;;15.97;;
13102;SDS011;52970;46.752;17.108;2024-01-30T05:05:05;22.17;;;15.47;;
13102;SDS011;52970;46.752;17.108;2024-01-30T05:07:30;23.97;;;15.83;;
13102;SDS011;52970;46.752;17.108;2024-01-30T05:09:56;22.90;;;16.47;;
13102;SDS011;52970;46.752;17.108;2024-01-30T05:12:21;24.17;;;16.00;;
13102;SDS011;52970;46.752;17.108;2024-01-30T05:14:46;26.10;;;15.30;;
13102;SDS011;52970;46.752;17.108;2024-01-30T05:17:11;23.10;;;16.10;;
13102;SDS011;52970;46.752;17.108;2024-01-30T05:19:38;20.87;;;14.47;;
13102;SDS011;52970;46.752;17.108;2024-01-30T05:22:03;22.07;;;15.40;;
13102;SDS011;52970;46.752;17.108;2024-01-30T05:24:28;20.33;;;14.17;;
13102;SDS011;52970;46.752;17.108;2024-01-30T05:26:53;21.37;;;15.07;;
13102;SDS011;52970;46.752;17.108;2024-01-30T05:29:19;21.53;;;14.70;;
13102;SDS011;52970;46.752;17.108;2024-01-30T05:31:44;19.57;;;14.20;;
13102;SDS011;52970;46.752;17.108;2024-01-30T05:34:10;19.30;;;14.17;;
13102;SDS011;52970;46.752;17.108;2024-01-30T05:36:35;20.60;;;13.93;;
13102;SDS011;52970;46.752;17.108;2024-01-30T05:39:00;21.20;;;14.07;;
13102;SDS011;52970;46.752;17.108;2024-01-30T05:41:26;24.00;;;14.70;;
13102;SDS011;52970;46.752;17.108;2024-01-30T05:43:51;23.20;;;15.40;;
13102;SDS011;52970;46.752;17.108;2024-01-30T05:46:16;24.03;;;17.43;;
13102;SDS011;52970;46.752;17.108;2024-01-30T05:48:41;23.63;;;15.97;;
13102;SDS011;52970;46.752;17.108;2024-01-30T05:51:07;23.23;;;15.40;;
13102;SDS011;52970;46.752;17.108;2024-01-30T05:53:33;24.93;;;16.33;;
13102;SDS011;52970;46.752;17.108;2024-01-30T05:55:59;22.27;;;15.27;;
13102;SDS011;52970;46.752;17.108;2024-01-30T05:58:24;24.97;;;16.13;;
13102;SDS011;52970;46.752;17.108;2024-01-30T06:00:50;21.63;;;15.13;;
13102;SDS011;52970;46.752;17.108;2024-01-30T06:03:15;26.13;;;15.83;;
13102;SDS011;52970;46.752;17.108;2024-01-30T06:05:40;25.70;;;15.87;;
13102;SDS011;52970;46.752;17.108;2024-01-30T06:08:05;26.97;;;16.67;;
13102;SDS011;52970;46.752;17.108;2024-01-30T06:10:31;23.33;;;16.17;;
13102;SDS011;52970;46.752;17.108;2024-01-30T06:12:56;26.83;;;17.60;;
13102;SDS011;52970;46.752;17.108;2024-01-30T06:15:21;26.87;;;17.40;;
13102;SDS011;52970;46.752;17.108;2024-01-30T06:17:46;28.47;;;17.93;;
13102;SDS011;52970;46.752;17.108;2024-01-30T06:20:12;29.10;;;16.97;;
13102;SDS011;52970;46.752;17.108;2024-01-30T06:22:37;27.90;;;17.73;;
13102;SDS011;52970;46.752;17.108;2024-01-30T06:25:02;23.03;;;16.57;;
13102;SDS011;52970;46.752;17.108;2024-01-30T06:27:28;28.27;;;17.67;;
13102;SDS011;52970;46.752;17.108;2024-01-30T06:29:53;31.03;;;18.97;;
13102;SDS011;52970;46.752;17.108;2024-01-30T06:32:18;28.17;;;18.00;;
13102;SDS011;52970;46.752;17.108;2024-01-30T06:34:43;27.00;;;17.63;;
13102;SDS011;52970;46.752;17.108;2024-01-30T06:37:09;25.03;;;17.30;;
13102;SDS011;52970;46.752;17.108;2024-01-30T06:39:34;31.30;;;20.37;;
13102;SDS011;52970;46.752;17.108;2024-01-30T06:41:59;27.20;;;18.23;;
13102;SDS011;52970;46.752;17.108;2024-01-30T06:44:25;28.33;;;19.10;;
13102;SDS011;52970;46.752;17.108;2024-01-30T06:46:50;26.80;;;17.40;;
13102;SDS011;52970;46.752;17.108;2024-01-30T06:49:15;26.10;;;17.70;;
13102;SDS011;52970;46.752;17.108;2024-01-30T06:51:40;26.33;;;16.30;;
13102;SDS011;52970;46.752;17.108;2024-01-30T06:54:06;24.43;;;16.27;;
13102;SDS011;52970;46.752;17.108;2024-01-30T06:56:31;28.27;;;17.23;;
13102;SDS011;52970;46.752;17.108;2024-01-30T06:58:56;21.97;;;16.53;;
13102;SDS011;52970;46.752;17.108;2024-01-30T07:01:27;28.23;;;16.77;;
13102;SDS011;52970;46.752;17.108;2024-01-30T07:03:52;26.43;;;17.37;;
13102;SDS011;52970;46.752;17.108;2024-01-30T07:06:17;24.33;;;16.13;;
13102;SDS011;52970;46.752;17.108;2024-01-30T07:08:43;26.97;;;18.27;;
13102;SDS011;52970;46.752;17.108;2024-01-30T07:11:08;33.23;;;20.23;;
13102;SDS011;52970;46.752;17.108;2024-01-30T07:13:34;24.47;;;17.30;;
13102;SDS011;52970;46.752;17.108;2024-01-30T07:15:59;31.53;;;19.47;;
13102;SDS011;52970;46.752;17.108;2024-01-30T07:18:25;36.13;;;25.10;;
13102;SDS011;52970;46.752;17.108;2024-01-30T07:20:50;32.13;;;22.07;;
13102;SDS011;52970;46.752;17.108;2024-01-30T07:23:15;33.63;;;22.80;;
13102;SDS011;52970;46.752;17.108;2024-01-30T07:25:45;39.70;;;24.87;;
13102;SDS011;52970;46.752;17.108;2024-01-30T07:28:11;31.07;;;22.47;;
13102;SDS011;52970;46.752;17.108;2024-01-30T07:30:37;31.50;;;21.57;;
13102;SDS011;52970;46.752;17.108;2024-01-30T07:33:03;31.47;;;22.00;;
13102;SDS011;52970;46.752;17.108;2024-01-30T07:35:28;31.93;;;20.47;;
13102;SDS011;52970;46.752;17.108;2024-01-30T07:37:53;32.80;;;20.27;;
13102;SDS011;52970;46.752;17.108;2024-01-30T07:40:18;33.07;;;22.20;;
13102;SDS011;52970;46.752;17.108;2024-01-30T07:42:44;36.33;;;22.33;;
13102;SDS011;52970;46.752;17.108;2024-01-30T07:45:09;33.53;;;21.80;;
13102;SDS011;52970;46.752;17.108;2024-01-30T07:47:34;37.87;;;22.97;;
13102;SDS011;52970;46.752;17.108;2024-01-30T07:50:00;35.00;;;22.43;;
13102;SDS011;52970;46.752;17.108;2024-01-30T07:52:25;34.03;;;22.27;;
13102;SDS011;52970;46.752;17.108;2024-01-30T07:54:50;36.57;;;22.30;;
13102;SDS011;52970;46.752;17.108;2024-01-30T07:57:16;38.67;;;21.60;;
13102;SDS011;52970;46.752;17.108;2024-01-30T07:59:44;38.77;;;22.73;;
13102;SDS011;52970;46.752;17.108;2024-01-30T08:02:12;31.90;;;21.47;;
13102;SDS011;52970;46.752;17.108;2024-01-30T08:04:37;34.30;;;22.10;;
13102;SDS011;52970;46.752;17.108;2024-01-30T08:07:02;35.47;;;21.20;;
13102;SDS011;52970;46.752;17.108;2024-01-30T08:09:28;30.13;;;20.60;;
13102;SDS011;52970;46.752;17.108;2024-01-30T08:11:53;30.83;;;19.57;;
13102;SDS011;52970;46.752;17.108;2024-01-30T08:14:18;27.70;;;19.07;;
13102;SDS011;52970;46.752;17.108;2024-01-30T08:16:44;25.63;;;18.17;;
13102;SDS011;52970;46.752;17.108;2024-01-30T08:19:09;29.97;;;19.00;;
13102;SDS011;52970;46.752;17.108;2024-01-30T08:21:34;28.10;;;18.77;;
13102;SDS011;52970;46.752;17.108;2024-01-30T08:24:02;30.70;;;19.10;;
13102;SDS011;52970;46.752;17.108;2024-01-30T08:26:28;29.57;;;18.10;;
13102;SDS011;52970;46.752;17.108;2024-01-30T08:28:53;29.87;;;18.33;;
13102;SDS011;52970;46.752;17.108;2024-01-30T08:31:19;47.63;;;26.47;;
13102;SDS011;52970;46.752;17.108;2024-01-30T08:33:44;35.00;;;19.97;;
13102;SDS011;52970;46.752;17.108;2024-01-30T08:36:09;32.17;;;17.93;;
13102;SDS011;52970;46.752;17.108;2024-01-30T08:38:34;29.57;;;18.20;;
13102;SDS011;52970;46.752;17.108;2024-01-30T08:40:59;26.13;;;17.67;;
13102;SDS011;52970;46.752;17.108;2024-01-30T08:43:25;26.70;;;17.87;;
13102;SDS011;52970;46.752;17.108;2024-01-30T08:45:51;24.80;;;16.47;;
13102;SDS011;52970;46.752;17.108;2024-01-30T08:48:16;26.17;;;17.83;;
13102;SDS011;52970;46.752;17.108;2024-01-30T08:50:42;25.87;;;17.33;;
13102;SDS011;52970;46.752;17.108;2024-01-30T08:53:08;24.43;;;16.23;;
13102;SDS011;52970;46.752;17.108;2024-01-30T08:55:33;23.70;;;15.90;;
13102;SDS011;52970;46.752;17.108;2024-01-30T08:57:58;23.77;;;16.63;;
13102;SDS011;52970;46.752;17.108;2024-01-30T09:00:24;24.93;;;15.53;;
13102;SDS011;52970;46.752;17.108;2024-01-30T09:02:50;25.67;;;16.27;;
13102;SDS011;52970;46.752;17.108;2024-01-30T09:05:15;22.90;;;15.57;;
13102;SDS011;52970;46.752;17.108;2024-01-30T09:07:40;23.77;;;16.50;;
13102;SDS011;52970;46.752;17.108;2024-01-30T09:10:05;24.10;;;14.83;;
13102;SDS011;52970;46.752;17.108;2024-01-30T09:12:31;22.63;;;15.23;;
13102;SDS011;52970;46.752;17.108;2024-01-30T09:14:56;25.53;;;17.43;;
13102;SDS011;52970;46.752;17.108;2024-01-30T09:17:21;43.87;;;24.17;;
13102;SDS011;52970;46.752;17.108;2024-01-30T09:19:47;23.63;;;15.43;;
13102;SDS011;52970;46.752;17.108;2024-01-30T09:22:12;22.93;;;14.83;;
13102;SDS011;52970;46.752;17.108;2024-01-30T09:24:37;21.00;;;14.20;;
13102;SDS011;52970;46.752;17.108;2024-01-30T09:27:02;21.80;;;14.30;;
13102;SDS011;52970;46.752;17.108;2024-01-30T09:29:28;24.30;;;16.07;;
13102;SDS011;52970;46.752;17.108;2024-01-30T09:31:53;20.03;;;14.30;;
13102;SDS011;52970;46.752;17.108;2024-01-30T09:34:18;20.90;;;14.83;;
13102;SDS011;52970;46.752;17.108;2024-01-30T09:36:44;23.40;;;14.33;;
13102;SDS011;52970;46.752;17.108;2024-01-30T09:39:09;20.43;;;14.90;;
13102;SDS011;52970;46.752;17.108;2024-01-30T09:41:36;24.43;;;16.07;;
13102;SDS011;52970;46.752;17.108;2024-01-30T09:44:03;23.37;;;15.47;;
13102;SDS011;52970;46.752;17.108;2024-01-30T09:46:30;25.73;;;15.90;;
13102;SDS011;52970;46.752;17.108;2024-01-30T09:48:57;20.50;;;14.83;;
13102;SDS011;52970;46.752;17.108;2024-01-30T09:51:22;27.50;;;15.67;;
13102;SDS011;52970;46.752;17.108;2024-01-30T09:53:48;22.80;;;15.37;;
13102;SDS011;52970;46.752;17.108;2024-01-30T09:56:14;23.80;;;15.60;;
13102;SDS011;52970;46.752;17.108;2024-01-30T09:58:39;24.47;;;15.27;;
13102;SDS011;52970;46.752;17.108;2024-01-30T10:01:05;23.40;;;15.57;;
13102;SDS011;52970;46.752;17.108;2024-01-30T10:03:30;22.60;;;15.80;;
13102;SDS011;52970;46.752;17.108;2024-01-30T10:05:55;26.37;;;16.43;;
13102;SDS011;52970;46.752;17.108;2024-01-30T10:08:21;24.40;;;15.20;;
13102;SDS011;52970;46.752;17.108;2024-01-30T10:10:46;23.43;;;16.13;;
13102;SDS011;52970;46.752;17.108;2024-01-30T10:13:12;23.10;;;15.57;;
13102;SDS011;52970;46.752;17.108;2024-01-30T10:15:37;22.63;;;14.67;;
13102;SDS011;52970;46.752;17.108;2024-01-30T10:18:03;22.53;;;14.93;;
13102;SDS011;52970;46.752;17.108;2024-01-30T10:20:31;23.07;;;15.37;;
13102;SDS011;52970;46.752;17.108;2024-01-30T10:22:57;21.70;;;15.83;;
13102;SDS011;52970;46.752;17.108;2024-01-30T10:25:22;22.93;;;14.83;;
13102;SDS011;52970;46.752;17.108;2024-01-30T10:27:52;19.50;;;14.87;;
13102;SDS011;52970;46.752;17.108;2024-01-30T10:30:17;22.43;;;15.73;;
13102;SDS011;52970;46.752;17.108;2024-01-30T10:32:42;21.63;;;13.97;;
13102;SDS011;52970;46.752;17.108;2024-01-30T10:35:07;25.20;;;15.23;;
13102;SDS011;52970;46.752;17.108;2024-01-30T10:37:34;19.50;;;14.70;;
13102;SDS011;52970;46.752;17.108;2024-01-30T10:40:02;19.23;;;14.63;;
13102;SDS011;52970;46.752;17.108;2024-01-30T10:42:28;21.27;;;14.48;;
13102;SDS011;52970;46.752;17.108;2024-01-30T10:44:56;20.07;;;14.60;;
13102;SDS011;52970;46.752;17.108;2024-01-30T10:47:28;23.70;;;14.60;;
13102;SDS011;52970;46.752;17.108;2024-01-30T10:49:56;19.03;;;13.23;;
13102;SDS011;52970;46.752;17.108;2024-01-30T10:52:25;21.52;;;13.88;;
13102;SDS011;52970;46.752;17.108;2024-01-30T10:54:51;20.63;;;14.23;;
13102;SDS011;52970;46.752;17.108;2024-01-30T10:57:17;17.60;;;13.93;;
13102;SDS011;52970;46.752;17.108;2024-01-30T10:59:42;19.23;;;13.57;;
13102;SDS011;52970;46.752;17.108;2024-01-30T11:02:09;20.15;;;14.40;;
13102;SDS011;52970;46.752;17.108;2024-01-30T11:04:36;21.55;;;14.77;;
13102;SDS011;52970;46.752;17.108;2024-01-30T11:07:01;20.70;;;13.77;;
13102;SDS011;52970;46.752;17.108;2024-01-30T11:09:29;18.25;;;13.35;;
13102;SDS011;52970;46.752;17.108;2024-01-30T11:11:57;17.73;;;14.07;;
13102;SDS011;52970;46.752;17.108;2024-01-30T11:14:26;21.27;;;13.45;;
13102;SDS011;52970;46.752;17.108;2024-01-30T11:16:52;20.25;;;13.77;;
13102;SDS011;52970;46.752;17.108;2024-01-30T11:19:23;17.40;;;13.27;;
13102;SDS011;52970;46.752;17.108;2024-01-30T11:21:52;19.00;;;14.00;;
13102;SDS011;52970;46.752;17.108;2024-01-30T11:24:22;18.25;;;13.15;;
13102;SDS011;52970;46.752;17.108;2024-01-30T11:26:48;18.65;;;14.15;;
13102;SDS011;52970;46.752;17.108;2024-01-30T11:29:14;17.92;;;13.32;;
13102;SDS011;52970;46.752;17.108;2024-01-30T11:31:40;18.45;;;13.50;;
13102;SDS011;52970;46.752;17.108;2024-01-30T11:34:16;18.83;;;13.55;;
13102;SDS011;52970;46.752;17.108;2024-01-30T11:36:41;20.40;;;13.38;;
13102;SDS011;52970;46.752;17.108;2024-01-30T11:39:08;18.50;;;13.60;;
13102;SDS011;52970;46.752;17.108;2024-01-30T11:41:33;19.42;;;13.57;;
13102;SDS011;52970;46.752;17.108;2024-01-30T11:43:59;16.95;;;13.13;;
13102;SDS011;52970;46.752;17.108;2024-01-30T11:46:24;17.50;;;12.35;;
13102;SDS011;52970;46.752;17.108;2024-01-30T11:48:50;20.45;;;12.93;;
13102;SDS011;52970;46.752;17.108;2024-01-30T11:51:15;19.00;;;12.75;;
13102;SDS011;52970;46.752;17.108;2024-01-30T11:53:43;20.23;;;13.73;;
13102;SDS011;52970;46.752;17.108;2024-01-30T11:56:08;17.83;;;12.32;;
13102;SDS011;52970;46.752;17.108;2024-01-30T11:58:34;16.63;;;12.13;;
13102;SDS011;52970;46.752;17.108;2024-01-30T12:00:59;16.52;;;12.90;;
13102;SDS011;52970;46.752;17.108;2024-01-30T12:03:25;18.38;;;11.13;;
13102;SDS011;52970;46.752;17.108;2024-01-30T12:05:56;16.65;;;12.23;;
13102;SDS011;52970;46.752;17.108;2024-01-30T12:08:25;16.83;;;12.43;;
13102;SDS011;52970;46.752;17.108;2024-01-30T12:10:56;16.77;;;12.98;;
13102;SDS011;52970;46.752;17.108;2024-01-30T12:13:23;17.63;;;12.20;;
13102;SDS011;52970;46.752;17.108;2024-01-30T12:15:48;16.05;;;12.02;;
13102;SDS011;52970;46.752;17.108;2024-01-30T12:18:13;16.35;;;11.98;;
13102;SDS011;52970;46.752;17.108;2024-01-30T12:20:39;15.80;;;11.90;;
13102;SDS011;52970;46.752;17.108;2024-01-30T12:23:04;15.80;;;11.82;;
13102;SDS011;52970;46.752;17.108;2024-01-30T12:25:29;19.10;;;12.30;;
13102;SDS011;52970;46.752;17.108;2024-01-30T12:27:54;16.33;;;11.68;;
13102;SDS011;52970;46.752;17.108;2024-01-30T12:30:20;16.17;;;11.77;;
13102;SDS011;52970;46.752;17.108;2024-01-30T12:32:46;17.20;;;11.65;;
13102;SDS011;52970;46.752;17.108;2024-01-30T12:35:13;16.75;;;12.25;;
13102;SDS011;52970;46.752;17.108;2024-01-30T12:37:39;14.13;;;11.55;;
13102;SDS011;52970;46.752;17.108;2024-01-30T12:40:04;16.27;;;12.13;;
13102;SDS011;52970;46.752;17.108;2024-01-30T12:42:31;21.10;;;13.82;;
13102;SDS011;52970;46.752;17.108;2024-01-30T12:44:59;17.35;;;11.80;;
13102;SDS011;52970;46.752;17.108;2024-01-30T12:47:25;15.85;;;11.73;;
13102;SDS011;52970;46.752;17.108;2024-01-30T12:49:50;18.55;;;13.38;;
13102;SDS011;52970;46.752;17.108;2024-01-30T12:52:18;15.65;;;11.48;;
13102;SDS011;52970;46.752;17.108;2024-01-30T12:54:44;16.38;;;11.85;;
13102;SDS011;52970;46.752;17.108;2024-01-30T12:57:09;15.38;;;10.63;;
13102;SDS011;52970;46.752;17.108;2024-01-30T12:59:34;14.25;;;10.27;;
13102;SDS011;52970;46.752;17.108;2024-01-30T13:02:00;12.38;;;9.70;;
13102;SDS011;52970;46.752;17.108;2024-01-30T13:04:25;13.85;;;10.30;;
13102;SDS011;52970;46.752;17.108;2024-01-30T13:06:51;13.68;;;10.43;;
13102;SDS011;52970;46.752;17.108;2024-01-30T13:09:16;14.35;;;9.80;;
13102;SDS011;52970;46.752;17.108;2024-01-30T13:11:41;15.85;;;10.75;;
13102;SDS011;52970;46.752;17.108;2024-01-30T13:14:06;13.38;;;10.25;;
13102;SDS011;52970;46.752;17.108;2024-01-30T13:16:32;15.50;;;10.35;;
13102;SDS011;52970;46.752;17.108;2024-01-30T13:18:57;12.52;;;9.35;;
13102;SDS011;52970;46.752;17.108;2024-01-30T13:21:22;13.60;;;10.43;;
13102;SDS011;52970;46.752;17.108;2024-01-30T13:23:47;12.50;;;9.98;;
13102;SDS011;52970;46.752;17.108;2024-01-30T13:26:13;13.40;;;9.73;;
13102;SDS011;52970;46.752;17.108;2024-01-30T13:28:38;14.75;;;10.30;;
13102;SDS011;52970;46.752;17.108;2024-01-30T13:31:03;14.93;;;9.40;;
13102;SDS011;52970;46.752;17.108;2024-01-30T13:33:30;18.02;;;10.20;;
13102;SDS011;52970;46.752;17.108;2024-01-30T13:35:55;13.85;;;9.82;;
13102;SDS011;52970;46.752;17.108;2024-01-30T13:38:20;12.02;;;9.48;;
13102;SDS011;52970;46.752;17.108;2024-01-30T13:40:46;13.02;;;10.02;;
13102;SDS011;52970;46.752;17.108;2024-01-30T13:43:11;14.55;;;8.85;;
13102;SDS011;52970;46.752;17.108;2024-01-30T13:45:37;14.20;;;10.27;;
13102;SDS011;52970;46.752;17.108;2024-01-30T13:48:02;17.40;;;10.15;;
13102;SDS011;52970;46.752;17.108;2024-01-30T13:50:28;13.95;;;9.73;;
13102;SDS011;52970;46.752;17.108;2024-01-30T13:52:53;14.07;;;9.90;;
13102;SDS011;52970;46.752;17.108;2024-01-30T13:55:19;12.60;;;10.30;;
13102;SDS011;52970;46.752;17.108;2024-01-30T13:57:44;14.15;;;9.68;;
13102;SDS011;52970;46.752;17.108;2024-01-30T14:00:09;12.93;;;9.57;;